sensor_id;sensor_type;location;lat;lon;timestamp;P1;durP1;ratioP1;P2;durP2;ratioP2
51298;SDS011;37382;45.192;9.790;2023-06-26T04:02:03;28.88;;;18.13;;
51298;SDS011;37382;45.192;9.790;2023-06-26T04:04:31;25.55;;;19.00;;
51298;SDS011;37382;45.192;9.790;2023-06-26T04:06:59;34.83;;;19.75;;
51298;SDS011;37382;45.192;9.790;2023-06-26T04:09:27;24.42;;;19.52;;
51298;SDS011;37382;45.192;9.790;2023-06-26T04:11:54;28.33;;;20.08;;
51298;SDS011;37382;45.192;9.790;2023-06-26T04:14:22;27.15;;;18.60;;
51298;SDS011;37382;45.192;9.790;2023-06-26T04:16:49;26.70;;;18.35;;
51298;SDS011;37382;45.192;9.790;2023-06-26T04:19:17;25.85;;;18.17;;
51298;SDS011;37382;45.192;9.790;2023-06-26T04:21:44;22.52;;;17.65;;
51298;SDS011;37382;45.192;9.790;2023-06-26T04:24:12;26.15;;;15.93;;
51298;SDS011;37382;45.192;9.790;2023-06-26T04:26:42;31.00;;;16.15;;
51298;SDS011;37382;45.192;9.790;2023-06-26T04:29:09;26.45;;;17.38;;
51298;SDS011;37382;45.192;9.790;2023-06-26T04:31:37;30.00;;;17.88;;
51298;SDS011;37382;45.192;9.790;2023-06-26T04:34:05;33.63;;;17.75;;
51298;SDS011;37382;45.192;9.790;2023-06-26T04:36:33;28.55;;;17.00;;
51298;SDS011;37382;45.192;9.790;2023-06-26T04:39:06;28.33;;;17.80;;
51298;SDS011;37382;45.192;9.790;2023-06-26T04:41:33;36.03;;;18.90;;
51298;SDS011;37382;45.192;9.790;2023-06-26T04:44:01;27.67;;;17.52;;
51298;SDS011;37382;45.192;9.790;2023-06-26T04:46:29;38.33;;;17.55;;
51298;SDS011;37382;45.192;9.790;2023-06-26T04:48:57;40.85;;;17.95;;
51298;SDS011;37382;45.192;9.790;2023-06-26T04:51:25;38.97;;;18.77;;
51298;SDS011;37382;45.192;9.790;2023-06-26T04:53:54;46.42;;;19.25;;
51298;SDS011;37382;45.192;9.790;2023-06-26T04:56:22;40.95;;;17.95;;
51298;SDS011;37382;45.192;9.790;2023-06-26T04:58:50;38.80;;;18.80;;
51298;SDS011;37382;45.192;9.790;2023-06-26T05:01:17;37.55;;;19.40;;
51298;SDS011;37382;45.192;9.790;2023-06-26T05:03:47;33.13;;;18.75;;
51298;SDS011;37382;45.192;9.790;2023-06-26T05:06:15;41.85;;;19.70;;
51298;SDS011;37382;45.192;9.790;2023-06-26T05:08:42;39.92;;;19.65;;
51298;SDS011;37382;45.192;9.790;2023-06-26T05:11:10;53.35;;;20.33;;
51298;SDS011;37382;45.192;9.790;2023-06-26T05:13:37;51.22;;;19.75;;
51298;SDS011;37382;45.192;9.790;2023-06-26T05:16:05;54.00;;;20.67;;
51298;SDS011;37382;45.192;9.790;2023-06-26T05:18:33;34.92;;;21.60;;
51298;SDS011;37382;45.192;9.790;2023-06-26T05:21:00;46.47;;;21.30;;
51298;SDS011;37382;45.192;9.790;2023-06-26T05:23:32;39.78;;;21.38;;
51298;SDS011;37382;45.192;9.790;2023-06-26T05:26:01;32.42;;;20.95;;
51298;SDS011;37382;45.192;9.790;2023-06-26T05:28:30;43.33;;;21.67;;
51298;SDS011;37382;45.192;9.790;2023-06-26T05:30:58;45.00;;;21.20;;
51298;SDS011;37382;45.192;9.790;2023-06-26T05:33:26;42.03;;;21.00;;
51298;SDS011;37382;45.192;9.790;2023-06-26T05:35:53;33.92;;;21.75;;
51298;SDS011;37382;45.192;9.790;2023-06-26T05:38:22;38.05;;;21.05;;
51298;SDS011;37382;45.192;9.790;2023-06-26T05:40:49;95.38;;;25.17;;
51298;SDS011;37382;45.192;9.790;2023-06-26T05:43:17;63.38;;;23.13;;
51298;SDS011;37382;45.192;9.790;2023-06-26T05:45:54;31.02;;;21.70;;
51298;SDS011;37382;45.192;9.790;2023-06-26T05:48:21;24.90;;;19.63;;
51298;SDS011;37382;45.192;9.790;2023-06-26T05:50:49;31.13;;;18.75;;
51298;SDS011;37382;45.192;9.790;2023-06-26T05:53:17;29.25;;;19.38;;
51298;SDS011;37382;45.192;9.790;2023-06-26T05:55:45;43.67;;;20.35;;
51298;SDS011;37382;45.192;9.790;2023-06-26T05:58:13;26.90;;;18.40;;
51298;SDS011;37382;45.192;9.790;2023-06-26T06:00:41;29.38;;;19.25;;
51298;SDS011;37382;45.192;9.790;2023-06-26T06:03:09;27.17;;;18.05;;
51298;SDS011;37382;45.192;9.790;2023-06-26T06:05:38;38.90;;;19.85;;
51298;SDS011;37382;45.192;9.790;2023-06-26T06:08:06;26.48;;;19.15;;
51298;SDS011;37382;45.192;9.790;2023-06-26T06:10:33;26.48;;;20.20;;
51298;SDS011;37382;45.192;9.790;2023-06-26T06:13:01;32.83;;;20.25;;
51298;SDS011;37382;45.192;9.790;2023-06-26T06:15:28;41.72;;;19.45;;
51298;SDS011;37382;45.192;9.790;2023-06-26T06:17:57;29.13;;;18.48;;
51298;SDS011;37382;45.192;9.790;2023-06-26T06:20:25;30.67;;;18.90;;
51298;SDS011;37382;45.192;9.790;2023-06-26T06:22:53;33.65;;;18.63;;
51298;SDS011;37382;45.192;9.790;2023-06-26T06:25:20;35.30;;;18.05;;
51298;SDS011;37382;45.192;9.790;2023-06-26T06:27:48;29.15;;;17.42;;
51298;SDS011;37382;45.192;9.790;2023-06-26T06:30:16;23.52;;;15.90;;
51298;SDS011;37382;45.192;9.790;2023-06-26T06:32:47;27.30;;;17.08;;
51298;SDS011;37382;45.192;9.790;2023-06-26T06:35:17;24.13;;;15.85;;
51298;SDS011;37382;45.192;9.790;2023-06-26T06:37:52;24.17;;;16.50;;
51298;SDS011;37382;45.192;9.790;2023-06-26T06:40:19;25.33;;;15.70;;
51298;SDS011;37382;45.192;9.790;2023-06-26T06:42:49;16.65;;;13.48;;
51298;SDS011;37382;45.192;9.790;2023-06-26T06:45:17;21.17;;;14.73;;
51298;SDS011;37382;45.192;9.790;2023-06-26T06:47:45;22.00;;;14.18;;
51298;SDS011;37382;45.192;9.790;2023-06-26T06:50:13;22.92;;;14.77;;
51298;SDS011;37382;45.192;9.790;2023-06-26T06:52:43;21.10;;;14.13;;
51298;SDS011;37382;45.192;9.790;2023-06-26T06:55:10;24.02;;;13.73;;
51298;SDS011;37382;45.192;9.790;2023-06-26T06:57:38;20.83;;;14.38;;
51298;SDS011;37382;45.192;9.790;2023-06-26T07:00:08;24.35;;;14.25;;
51298;SDS011;37382;45.192;9.790;2023-06-26T07:02:38;21.23;;;13.02;;
51298;SDS011;37382;45.192;9.790;2023-06-26T07:05:06;21.50;;;13.77;;
51298;SDS011;37382;45.192;9.790;2023-06-26T07:07:34;25.48;;;13.90;;
51298;SDS011;37382;45.192;9.790;2023-06-26T07:10:08;27.15;;;14.25;;
51298;SDS011;37382;45.192;9.790;2023-06-26T07:12:37;19.95;;;14.27;;
51298;SDS011;37382;45.192;9.790;2023-06-26T07:15:05;21.83;;;13.73;;
51298;SDS011;37382;45.192;9.790;2023-06-26T07:17:33;23.88;;;14.55;;
51298;SDS011;37382;45.192;9.790;2023-06-26T07:20:02;22.55;;;14.15;;
51298;SDS011;37382;45.192;9.790;2023-06-26T07:22:36;21.73;;;14.80;;
51298;SDS011;37382;45.192;9.790;2023-06-26T07:25:04;22.25;;;14.35;;
51298;SDS011;37382;45.192;9.790;2023-06-26T07:27:31;29.67;;;15.07;;
51298;SDS011;37382;45.192;9.790;2023-06-26T07:30:00;20.33;;;13.90;;
51298;SDS011;37382;45.192;9.790;2023-06-26T07:32:29;24.80;;;14.10;;
51298;SDS011;37382;45.192;9.790;2023-06-26T07:34:56;26.63;;;15.68;;
51298;SDS011;37382;45.192;9.790;2023-06-26T07:37:24;28.42;;;15.70;;
51298;SDS011;37382;45.192;9.790;2023-06-26T07:39:51;33.85;;;15.82;;
51298;SDS011;37382;45.192;9.790;2023-06-26T07:42:19;27.27;;;15.77;;
51298;SDS011;37382;45.192;9.790;2023-06-26T07:44:46;32.42;;;16.05;;
51298;SDS011;37382;45.192;9.790;2023-06-26T07:47:14;28.45;;;17.02;;
51298;SDS011;37382;45.192;9.790;2023-06-26T07:49:42;22.70;;;14.90;;
51298;SDS011;37382;45.192;9.790;2023-06-26T07:52:09;21.20;;;15.15;;
51298;SDS011;37382;45.192;9.790;2023-06-26T07:54:39;20.20;;;14.65;;
51298;SDS011;37382;45.192;9.790;2023-06-26T07:57:06;21.85;;;14.40;;
51298;SDS011;37382;45.192;9.790;2023-06-26T07:59:35;29.58;;;14.82;;
51298;SDS011;37382;45.192;9.790;2023-06-26T08:02:03;25.73;;;13.73;;
51298;SDS011;37382;45.192;9.790;2023-06-26T08:04:31;27.80;;;13.60;;
51298;SDS011;37382;45.192;9.790;2023-06-26T08:07:01;26.02;;;13.73;;
51298;SDS011;37382;45.192;9.790;2023-06-26T08:09:31;23.67;;;13.02;;
51298;SDS011;37382;45.192;9.790;2023-06-26T08:11:59;29.80;;;13.45;;
51298;SDS011;37382;45.192;9.790;2023-06-26T08:14:27;20.73;;;13.77;;
51298;SDS011;37382;45.192;9.790;2023-06-26T08:16:54;20.83;;;14.77;;
51298;SDS011;37382;45.192;9.790;2023-06-26T08:19:22;23.65;;;14.23;;
51298;SDS011;37382;45.192;9.790;2023-06-26T08:21:50;20.67;;;13.52;;
51298;SDS011;37382;45.192;9.790;2023-06-26T08:24:18;23.92;;;13.13;;
51298;SDS011;37382;45.192;9.790;2023-06-26T08:26:46;24.48;;;14.65;;
51298;SDS011;37382;45.192;9.790;2023-06-26T08:29:15;21.20;;;12.98;;
51298;SDS011;37382;45.192;9.790;2023-06-26T08:31:43;23.80;;;14.05;;
51298;SDS011;37382;45.192;9.790;2023-06-26T08:34:11;29.73;;;11.80;;
51298;SDS011;37382;45.192;9.790;2023-06-26T08:36:38;23.85;;;13.25;;
51298;SDS011;37382;45.192;9.790;2023-06-26T08:39:06;19.35;;;12.80;;
51298;SDS011;37382;45.192;9.790;2023-06-26T08:41:36;25.95;;;13.43;;
51298;SDS011;37382;45.192;9.790;2023-06-26T08:44:03;30.85;;;12.93;;
51298;SDS011;37382;45.192;9.790;2023-06-26T08:46:32;23.25;;;12.00;;
51298;SDS011;37382;45.192;9.790;2023-06-26T08:49:01;37.63;;;11.60;;
51298;SDS011;37382;45.192;9.790;2023-06-26T08:51:43;26.45;;;12.10;;
51298;SDS011;37382;45.192;9.790;2023-06-26T08:54:15;41.40;;;12.32;;
51298;SDS011;37382;45.192;9.790;2023-06-26T08:56:49;25.00;;;11.32;;
51298;SDS011;37382;45.192;9.790;2023-06-26T08:59:17;25.42;;;11.68;;
51298;SDS011;37382;45.192;9.790;2023-06-26T09:01:45;20.48;;;12.13;;
51298;SDS011;37382;45.192;9.790;2023-06-26T09:04:13;35.20;;;12.45;;
51298;SDS011;37382;45.192;9.790;2023-06-26T09:06:41;29.95;;;12.38;;
51298;SDS011;37382;45.192;9.790;2023-06-26T09:09:09;22.58;;;9.95;;
51298;SDS011;37382;45.192;9.790;2023-06-26T09:11:37;18.88;;;11.02;;
51298;SDS011;37382;45.192;9.790;2023-06-26T09:14:05;19.08;;;7.38;;
51298;SDS011;37382;45.192;9.790;2023-06-26T09:16:39;18.30;;;6.53;;
51298;SDS011;37382;45.192;9.790;2023-06-26T09:19:11;11.15;;;6.35;;
51298;SDS011;37382;45.192;9.790;2023-06-26T09:21:40;14.95;;;7.07;;
51298;SDS011;37382;45.192;9.790;2023-06-26T09:24:08;18.40;;;6.47;;
51298;SDS011;37382;45.192;9.790;2023-06-26T09:26:37;14.00;;;5.50;;
51298;SDS011;37382;45.192;9.790;2023-06-26T09:29:06;16.20;;;5.35;;
51298;SDS011;37382;45.192;9.790;2023-06-26T09:31:36;8.60;;;4.93;;
51298;SDS011;37382;45.192;9.790;2023-06-26T09:34:08;10.55;;;5.45;;
51298;SDS011;37382;45.192;9.790;2023-06-26T09:36:37;11.18;;;5.60;;
51298;SDS011;37382;45.192;9.790;2023-06-26T09:39:07;6.47;;;4.20;;
51298;SDS011;37382;45.192;9.790;2023-06-26T09:41:43;5.25;;;4.30;;
51298;SDS011;37382;45.192;9.790;2023-06-26T09:44:13;6.45;;;4.43;;
51298;SDS011;37382;45.192;9.790;2023-06-26T09:46:44;13.25;;;4.05;;
51298;SDS011;37382;45.192;9.790;2023-06-26T09:51:41;7.63;;;4.22;;
51298;SDS011;37382;45.192;9.790;2023-06-26T09:54:09;8.65;;;4.10;;
51298;SDS011;37382;45.192;9.790;2023-06-26T09:56:37;8.15;;;3.97;;
51298;SDS011;37382;45.192;9.790;2023-06-26T09:59:05;7.13;;;3.80;;
51298;SDS011;37382;45.192;9.790;2023-06-26T10:01:40;12.95;;;5.13;;
51298;SDS011;37382;45.192;9.790;2023-06-26T10:04:09;8.98;;;4.40;;
51298;SDS011;37382;45.192;9.790;2023-06-26T10:06:41;6.20;;;4.38;;
51298;SDS011;37382;45.192;9.790;2023-06-26T10:09:17;11.02;;;4.80;;
51298;SDS011;37382;45.192;9.790;2023-06-26T10:12:01;8.75;;;3.90;;
51298;SDS011;37382;45.192;9.790;2023-06-26T10:14:35;9.13;;;4.30;;
51298;SDS011;37382;45.192;9.790;2023-06-26T10:17:08;6.05;;;3.17;;
51298;SDS011;37382;45.192;9.790;2023-06-26T10:19:38;9.38;;;3.90;;
51298;SDS011;37382;45.192;9.790;2023-06-26T10:22:08;10.50;;;4.15;;
51298;SDS011;37382;45.192;9.790;2023-06-26T10:24:38;6.85;;;4.90;;
51298;SDS011;37382;45.192;9.790;2023-06-26T10:27:08;5.18;;;3.90;;
51298;SDS011;37382;45.192;9.790;2023-06-26T10:29:48;8.90;;;4.15;;
51298;SDS011;37382;45.192;9.790;2023-06-26T10:32:21;6.07;;;4.18;;
51298;SDS011;37382;45.192;9.790;2023-06-26T10:34:52;8.05;;;3.47;;
51298;SDS011;37382;45.192;9.790;2023-06-26T10:37:20;10.77;;;4.20;;
51298;SDS011;37382;45.192;9.790;2023-06-26T10:39:49;11.40;;;4.00;;
51298;SDS011;37382;45.192;9.790;2023-06-26T10:42:18;4.82;;;3.55;;
51298;SDS011;37382;45.192;9.790;2023-06-26T10:44:47;5.78;;;3.80;;
51298;SDS011;37382;45.192;9.790;2023-06-26T10:47:30;7.15;;;4.13;;
51298;SDS011;37382;45.192;9.790;2023-06-26T10:53:12;8.55;;;3.95;;
51298;SDS011;37382;45.192;9.790;2023-06-26T11:01:17;6.30;;;3.60;;
51298;SDS011;37382;45.192;9.790;2023-06-26T11:06:32;7.40;;;3.28;;
51298;SDS011;37382;45.192;9.790;2023-06-26T11:14:31;9.80;;;3.40;;
51298;SDS011;37382;45.192;9.790;2023-06-26T11:17:01;6.80;;;3.58;;
51298;SDS011;37382;45.192;9.790;2023-06-26T11:19:30;6.35;;;3.38;;
51298;SDS011;37382;45.192;9.790;2023-06-26T11:22:00;7.07;;;3.83;;
51298;SDS011;37382;45.192;9.790;2023-06-26T11:24:31;8.15;;;3.70;;
51298;SDS011;37382;45.192;9.790;2023-06-26T11:27:00;7.28;;;3.33;;
51298;SDS011;37382;45.192;9.790;2023-06-26T11:29:30;5.15;;;3.45;;
51298;SDS011;37382;45.192;9.790;2023-06-26T11:31:58;5.72;;;3.53;;
51298;SDS011;37382;45.192;9.790;2023-06-26T11:34:32;6.40;;;3.45;;
51298;SDS011;37382;45.192;9.790;2023-06-26T11:37:01;4.30;;;3.28;;
51298;SDS011;37382;45.192;9.790;2023-06-26T11:39:28;6.45;;;3.30;;
51298;SDS011;37382;45.192;9.790;2023-06-26T11:41:56;7.18;;;3.22;;
51298;SDS011;37382;45.192;9.790;2023-06-26T11:44:24;3.67;;;3.15;;
51298;SDS011;37382;45.192;9.790;2023-06-26T11:46:52;4.43;;;3.47;;
51298;SDS011;37382;45.192;9.790;2023-06-26T11:49:22;4.00;;;3.60;;
51298;SDS011;37382;45.192;9.790;2023-06-26T11:51:52;6.05;;;3.30;;
51298;SDS011;37382;45.192;9.790;2023-06-26T11:54:25;4.95;;;3.50;;
51298;SDS011;37382;45.192;9.790;2023-06-26T11:56:54;12.77;;;3.10;;
51298;SDS011;37382;45.192;9.790;2023-06-26T11:59:35;7.82;;;3.05;;
51298;SDS011;37382;45.192;9.790;2023-06-26T12:02:05;9.52;;;3.15;;
51298;SDS011;37382;45.192;9.790;2023-06-26T12:04:35;6.97;;;3.77;;
51298;SDS011;37382;45.192;9.790;2023-06-26T12:07:05;4.95;;;3.22;;
51298;SDS011;37382;45.192;9.790;2023-06-26T12:09:38;6.53;;;3.35;;
51298;SDS011;37382;45.192;9.790;2023-06-26T12:12:08;4.22;;;3.22;;
51298;SDS011;37382;45.192;9.790;2023-06-26T12:14:38;7.90;;;3.33;;
51298;SDS011;37382;45.192;9.790;2023-06-26T12:17:11;3.83;;;3.15;;
51298;SDS011;37382;45.192;9.790;2023-06-26T12:19:44;10.07;;;3.72;;
51298;SDS011;37382;45.192;9.790;2023-06-26T12:22:17;8.98;;;3.78;;
51298;SDS011;37382;45.192;9.790;2023-06-26T12:24:46;11.00;;;3.65;;
51298;SDS011;37382;45.192;9.790;2023-06-26T12:27:17;7.20;;;3.47;;
51298;SDS011;37382;45.192;9.790;2023-06-26T12:29:54;9.95;;;3.60;;
51298;SDS011;37382;45.192;9.790;2023-06-26T12:32:25;7.95;;;3.80;;
51298;SDS011;37382;45.192;9.790;2023-06-26T12:34:54;4.43;;;3.20;;
51298;SDS011;37382;45.192;9.790;2023-06-26T12:37:23;6.55;;;3.70;;
51298;SDS011;37382;45.192;9.790;2023-06-26T12:39:54;4.57;;;3.47;;
51298;SDS011;37382;45.192;9.790;2023-06-26T12:42:24;8.88;;;3.40;;
51298;SDS011;37382;45.192;9.790;2023-06-26T12:44:53;7.10;;;3.22;;
51298;SDS011;37382;45.192;9.790;2023-06-26T12:49:54;4.45;;;3.28;;
51298;SDS011;37382;45.192;9.790;2023-06-26T12:52:21;10.02;;;3.45;;
51298;SDS011;37382;45.192;9.790;2023-06-26T12:54:53;4.15;;;3.47;;
51298;SDS011;37382;45.192;9.790;2023-06-26T12:57:22;8.40;;;3.55;;
51298;SDS011;37382;45.192;9.790;2023-06-26T12:59:50;13.23;;;3.95;;
51298;SDS011;37382;45.192;9.790;2023-06-26T13:02:18;5.47;;;3.60;;
51298;SDS011;37382;45.192;9.790;2023-06-26T13:04:46;10.00;;;3.92;;
51298;SDS011;37382;45.192;9.790;2023-06-26T13:07:15;17.65;;;4.68;;
51298;SDS011;37382;45.192;9.790;2023-06-26T13:09:42;9.20;;;3.80;;
51298;SDS011;37382;45.192;9.790;2023-06-26T13:12:12;9.57;;;3.70;;
51298;SDS011;37382;45.192;9.790;2023-06-26T13:14:40;13.77;;;3.85;;
51298;SDS011;37382;45.192;9.790;2023-06-26T13:17:07;7.07;;;3.55;;
51298;SDS011;37382;45.192;9.790;2023-06-26T13:19:36;8.52;;;3.90;;
51298;SDS011;37382;45.192;9.790;2023-06-26T13:22:04;12.05;;;4.03;;
51298;SDS011;37382;45.192;9.790;2023-06-26T13:24:31;6.50;;;4.03;;
51298;SDS011;37382;45.192;9.790;2023-06-26T13:26:59;6.35;;;3.72;;
51298;SDS011;37382;45.192;9.790;2023-06-26T13:29:28;12.15;;;3.97;;
51298;SDS011;37382;45.192;9.790;2023-06-26T13:31:56;6.38;;;3.78;;
51298;SDS011;37382;45.192;9.790;2023-06-26T13:34:24;19.52;;;3.85;;
51298;SDS011;37382;45.192;9.790;2023-06-26T13:36:55;4.75;;;4.20;;
51298;SDS011;37382;45.192;9.790;2023-06-26T13:39:24;7.15;;;3.95;;
51298;SDS011;37382;45.192;9.790;2023-06-26T13:41:51;8.82;;;3.90;;
51298;SDS011;37382;45.192;9.790;2023-06-26T13:44:19;9.77;;;3.70;;
51298;SDS011;37382;45.192;9.790;2023-06-26T13:47:02;10.50;;;4.18;;
51298;SDS011;37382;45.192;9.790;2023-06-26T13:49:30;11.15;;;3.88;;
51298;SDS011;37382;45.192;9.790;2023-06-26T13:51:58;6.70;;;3.65;;
51298;SDS011;37382;45.192;9.790;2023-06-26T13:54:26;7.40;;;4.25;;
51298;SDS011;37382;45.192;9.790;2023-06-26T13:56:54;6.55;;;3.83;;
51298;SDS011;37382;45.192;9.790;2023-06-26T13:59:47;9.77;;;4.00;;
51298;SDS011;37382;45.192;9.790;2023-06-26T14:02:15;7.60;;;3.83;;
51298;SDS011;37382;45.192;9.790;2023-06-26T14:04:43;7.53;;;4.25;;
51298;SDS011;37382;45.192;9.790;2023-06-26T14:07:10;11.65;;;4.10;;
51298;SDS011;37382;45.192;9.790;2023-06-26T14:09:38;7.15;;;4.00;;
51298;SDS011;37382;45.192;9.790;2023-06-26T14:12:06;10.27;;;4.13;;
51298;SDS011;37382;45.192;9.790;2023-06-26T14:14:34;16.13;;;4.00;;
51298;SDS011;37382;45.192;9.790;2023-06-26T14:17:02;13.07;;;3.90;;
51298;SDS011;37382;45.192;9.790;2023-06-26T14:19:30;12.50;;;4.05;;
51298;SDS011;37382;45.192;9.790;2023-06-26T14:21:57;15.15;;;4.18;;
51298;SDS011;37382;45.192;9.790;2023-06-26T14:24:24;11.45;;;4.15;;
51298;SDS011;37382;45.192;9.790;2023-06-26T14:26:52;14.75;;;4.00;;
51298;SDS011;37382;45.192;9.790;2023-06-26T14:29:20;8.45;;;4.00;;
51298;SDS011;37382;45.192;9.790;2023-06-26T14:31:48;9.95;;;3.88;;
51298;SDS011;37382;45.192;9.790;2023-06-26T14:34:18;9.88;;;4.15;;
51298;SDS011;37382;45.192;9.790;2023-06-26T14:36:46;17.80;;;4.25;;
51298;SDS011;37382;45.192;9.790;2023-06-26T14:39:14;7.75;;;3.75;;
51298;SDS011;37382;45.192;9.790;2023-06-26T14:41:42;10.88;;;3.88;;
51298;SDS011;37382;45.192;9.790;2023-06-26T14:44:10;9.85;;;4.30;;
51298;SDS011;37382;45.192;9.790;2023-06-26T14:46:38;13.95;;;4.07;;
51298;SDS011;37382;45.192;9.790;2023-06-26T14:49:07;11.07;;;3.85;;
51298;SDS011;37382;45.192;9.790;2023-06-26T14:51:34;6.68;;;3.90;;
51298;SDS011;37382;45.192;9.790;2023-06-26T14:54:02;9.60;;;3.85;;
51298;SDS011;37382;45.192;9.790;2023-06-26T14:56:30;11.25;;;4.07;;
51298;SDS011;37382;45.192;9.790;2023-06-26T14:58:58;12.02;;;3.90;;
51298;SDS011;37382;45.192;9.790;2023-06-26T15:01:26;5.65;;;4.05;;
51298;SDS011;37382;45.192;9.790;2023-06-26T15:03:54;7.20;;;3.38;;
51298;SDS011;37382;45.192;9.790;2023-06-26T15:06:22;13.75;;;4.70;;
51298;SDS011;37382;45.192;9.790;2023-06-26T15:08:49;10.70;;;4.00;;
51298;SDS011;37382;45.192;9.790;2023-06-26T15:11:17;9.90;;;3.90;;
51298;SDS011;37382;45.192;9.790;2023-06-26T15:13:45;9.07;;;3.53;;
51298;SDS011;37382;45.192;9.790;2023-06-26T15:16:13;8.52;;;3.72;;
51298;SDS011;37382;45.192;9.790;2023-06-26T15:18:40;7.20;;;3.45;;
51298;SDS011;37382;45.192;9.790;2023-06-26T15:21:08;12.02;;;3.95;;
51298;SDS011;37382;45.192;9.790;2023-06-26T15:23:36;11.85;;;3.90;;
51298;SDS011;37382;45.192;9.790;2023-06-26T15:26:05;5.72;;;3.30;;
51298;SDS011;37382;45.192;9.790;2023-06-26T15:28:33;6.53;;;3.55;;
51298;SDS011;37382;45.192;9.790;2023-06-26T15:31:00;9.60;;;3.33;;
51298;SDS011;37382;45.192;9.790;2023-06-26T15:33:28;4.88;;;3.05;;
51298;SDS011;37382;45.192;9.790;2023-06-26T15:35:55;6.82;;;3.78;;
51298;SDS011;37382;45.192;9.790;2023-06-26T15:38:23;7.97;;;3.28;;
51298;SDS011;37382;45.192;9.790;2023-06-26T15:40:51;8.18;;;3.03;;
51298;SDS011;37382;45.192;9.790;2023-06-26T15:43:19;8.90;;;3.47;;
51298;SDS011;37382;45.192;9.790;2023-06-26T15:45:47;7.25;;;2.95;;
51298;SDS011;37382;45.192;9.790;2023-06-26T15:48:14;9.63;;;3.10;;
51298;SDS011;37382;45.192;9.790;2023-06-26T15:50:42;6.07;;;2.90;;
51298;SDS011;37382;45.192;9.790;2023-06-26T15:53:09;15.68;;;3.33;;
51298;SDS011;37382;45.192;9.790;2023-06-26T15:55:37;5.65;;;2.75;;
51298;SDS011;37382;45.192;9.790;2023-06-26T15:58:05;6.80;;;3.03;;
51298;SDS011;37382;45.192;9.790;2023-06-26T16:00:33;9.88;;;3.72;;
51298;SDS011;37382;45.192;9.790;2023-06-26T16:03:01;5.75;;;2.95;;
51298;SDS011;37382;45.192;9.790;2023-06-26T16:05:29;10.50;;;3.22;;
51298;SDS011;37382;45.192;9.790;2023-06-26T16:07:57;12.90;;;2.85;;
51298;SDS011;37382;45.192;9.790;2023-06-26T16:10:24;24.90;;;3.63;;
51298;SDS011;37382;45.192;9.790;2023-06-26T16:12:53;5.70;;;2.90;;
51298;SDS011;37382;45.192;9.790;2023-06-26T16:15:21;6.85;;;2.95;;
51298;SDS011;37382;45.192;9.790;2023-06-26T16:17:48;5.63;;;2.50;;
51298;SDS011;37382;45.192;9.790;2023-06-26T16:20:15;7.70;;;2.97;;
51298;SDS011;37382;45.192;9.790;2023-06-26T16:22:43;7.55;;;3.10;;
51298;SDS011;37382;45.192;9.790;2023-06-26T16:25:11;7.80;;;2.90;;
51298;SDS011;37382;45.192;9.790;2023-06-26T16:27:40;6.63;;;3.13;;
51298;SDS011;37382;45.192;9.790;2023-06-26T16:30:09;7.07;;;2.75;;
51298;SDS011;37382;45.192;9.790;2023-06-26T16:32:37;12.38;;;2.92;;
51298;SDS011;37382;45.192;9.790;2023-06-26T16:35:05;4.60;;;2.47;;
51298;SDS011;37382;45.192;9.790;2023-06-26T16:37:34;8.50;;;3.15;;
51298;SDS011;37382;45.192;9.790;2023-06-26T16:40:02;7.93;;;2.88;;
51298;SDS011;37382;45.192;9.790;2023-06-26T16:42:30;7.35;;;3.03;;
51298;SDS011;37382;45.192;9.790;2023-06-26T16:44:57;5.93;;;2.83;;
51298;SDS011;37382;45.192;9.790;2023-06-26T16:47:25;6.10;;;3.13;;
51298;SDS011;37382;45.192;9.790;2023-06-26T16:49:56;16.70;;;3.20;;
51298;SDS011;37382;45.192;9.790;2023-06-26T16:52:23;7.72;;;3.35;;
51298;SDS011;37382;45.192;9.790;2023-06-26T16:54:51;13.05;;;3.22;;
51298;SDS011;37382;45.192;9.790;2023-06-26T16:57:19;10.23;;;3.03;;
51298;SDS011;37382;45.192;9.790;2023-06-26T16:59:47;9.60;;;3.67;;
51298;SDS011;37382;45.192;9.790;2023-06-26T17:02:14;8.77;;;3.50;;
51298;SDS011;37382;45.192;9.790;2023-06-26T17:04:42;9.15;;;3.58;;
51298;SDS011;37382;45.192;9.790;2023-06-26T17:07:10;12.02;;;3.60;;
51298;SDS011;37382;45.192;9.790;2023-06-26T17:09:38;7.20;;;2.88;;
51298;SDS011;37382;45.192;9.790;2023-06-26T17:12:05;5.28;;;2.90;;
51298;SDS011;37382;45.192;9.790;2023-06-26T17:14:33;5.00;;;2.90;;
51298;SDS011;37382;45.192;9.790;2023-06-26T17:17:01;6.18;;;2.90;;
51298;SDS011;37382;45.192;9.790;2023-06-26T17:19:28;6.15;;;2.50;;
51298;SDS011;37382;45.192;9.790;2023-06-26T17:21:56;12.07;;;3.00;;
51298;SDS011;37382;45.192;9.790;2023-06-26T17:24:24;7.05;;;2.92;;
51298;SDS011;37382;45.192;9.790;2023-06-26T17:26:52;8.37;;;2.70;;
51298;SDS011;37382;45.192;9.790;2023-06-26T17:29:20;13.07;;;3.60;;
51298;SDS011;37382;45.192;9.790;2023-06-26T17:31:47;4.88;;;2.88;;
51298;SDS011;37382;45.192;9.790;2023-06-26T17:34:15;11.93;;;2.95;;
51298;SDS011;37382;45.192;9.790;2023-06-26T17:36:43;11.65;;;3.15;;
51298;SDS011;37382;45.192;9.790;2023-06-26T17:39:10;13.70;;;3.35;;
51298;SDS011;37382;45.192;9.790;2023-06-26T17:41:38;4.28;;;2.70;;
51298;SDS011;37382;45.192;9.790;2023-06-26T17:44:06;11.82;;;3.08;;
51298;SDS011;37382;45.192;9.790;2023-06-26T17:46:34;10.10;;;5.22;;
51298;SDS011;37382;45.192;9.790;2023-06-26T17:49:02;4.68;;;3.83;;
51298;SDS011;37382;45.192;9.790;2023-06-26T17:51:29;11.85;;;4.50;;
51298;SDS011;37382;45.192;9.790;2023-06-26T17:53:57;6.82;;;3.83;;
51298;SDS011;37382;45.192;9.790;2023-06-26T17:56:24;12.07;;;4.03;;
51298;SDS011;37382;45.192;9.790;2023-06-26T17:58:52;7.32;;;4.03;;
51298;SDS011;37382;45.192;9.790;2023-06-26T18:01:19;15.15;;;3.47;;
51298;SDS011;37382;45.192;9.790;2023-06-26T18:03:47;10.63;;;3.90;;
51298;SDS011;37382;45.192;9.790;2023-06-26T18:06:14;13.73;;;3.92;;
51298;SDS011;37382;45.192;9.790;2023-06-26T18:08:42;14.00;;;3.83;;
51298;SDS011;37382;45.192;9.790;2023-06-26T18:11:09;5.65;;;3.58;;
51298;SDS011;37382;45.192;9.790;2023-06-26T18:13:37;16.13;;;4.00;;
51298;SDS011;37382;45.192;9.790;2023-06-26T18:16:04;8.32;;;4.07;;
51298;SDS011;37382;45.192;9.790;2023-06-26T18:18:34;12.18;;;4.25;;
51298;SDS011;37382;45.192;9.790;2023-06-26T18:21:05;19.45;;;5.13;;
51298;SDS011;37382;45.192;9.790;2023-06-26T18:23:33;12.98;;;4.53;;
51298;SDS011;37382;45.192;9.790;2023-06-26T18:26:01;30.65;;;5.70;;
51298;SDS011;37382;45.192;9.790;2023-06-26T18:28:28;13.23;;;6.25;;
51298;SDS011;37382;45.192;9.790;2023-06-26T18:30:59;13.05;;;5.65;;
51298;SDS011;37382;45.192;9.790;2023-06-26T18:33:27;9.60;;;4.55;;
51298;SDS011;37382;45.192;9.790;2023-06-26T18:35:55;12.50;;;4.00;;
51298;SDS011;37382;45.192;9.790;2023-06-26T18:38:22;15.65;;;4.20;;
51298;SDS011;37382;45.192;9.790;2023-06-26T18:40:50;9.30;;;4.55;;
51298;SDS011;37382;45.192;9.790;2023-06-26T18:43:18;6.18;;;3.63;;
51298;SDS011;37382;45.192;9.790;2023-06-26T18:45:48;21.92;;;4.25;;
51298;SDS011;37382;45.192;9.790;2023-06-26T18:48:16;17.10;;;4.65;;
51298;SDS011;37382;45.192;9.790;2023-06-26T18:50:43;13.20;;;4.50;;
51298;SDS011;37382;45.192;9.790;2023-06-26T18:53:11;14.48;;;4.93;;
51298;SDS011;37382;45.192;9.790;2023-06-26T18:55:39;8.23;;;4.45;;
51298;SDS011;37382;45.192;9.790;2023-06-26T18:58:07;12.02;;;4.60;;
51298;SDS011;37382;45.192;9.790;2023-06-26T19:00:35;7.32;;;4.65;;
51298;SDS011;37382;45.192;9.790;2023-06-26T19:03:04;10.50;;;4.45;;
51298;SDS011;37382;45.192;9.790;2023-06-26T19:05:32;18.02;;;4.15;;
51298;SDS011;37382;45.192;9.790;2023-06-26T19:07:59;10.35;;;4.00;;